createdAt,value
2023-02-03T00:00:34.310Z,8.05
2023-02-03T00:01:34.868Z,8.05
2023-02-03T00:02:35.419Z,8.1
2023-02-03T00:03:34.247Z,8.1
2023-02-03T00:04:34.362Z,8.1
2023-02-03T00:05:34.787Z,8.1
2023-02-03T00:06:35.297Z,8.1
2023-02-03T00:07:35.511Z,8.1
2023-02-03T00:08:35.506Z,8.1
2023-02-03T00:09:35.021Z,8.1
2023-02-03T00:10:35.115Z,8.1
2023-02-03T00:11:35.070Z,8.1
2023-02-03T00:12:34.462Z,8.1
2023-02-03T00:13:35.455Z,8.1
2023-02-03T00:14:34.509Z,8.1
2023-02-03T00:15:34.232Z,8.1
2023-02-03T00:16:33.286Z,8.1
2023-02-03T00:17:34.751Z,8.1
2023-02-03T00:18:34.299Z,8.1
2023-02-03T00:19:35.004Z,8.1
2023-02-03T00:20:35.387Z,8.1
2023-02-03T00:21:35.300Z,8.1
2023-02-03T00:22:35.530Z,8.05
2023-02-03T00:23:35.019Z,8.05
2023-02-03T00:24:35.327Z,8
2023-02-03T00:25:34.597Z,8
2023-02-03T00:26:34.720Z,7.95
2023-02-03T00:27:34.913Z,7.95
2023-02-03T00:28:34.719Z,7.89
2023-02-03T00:29:35.141Z,7.89
2023-02-03T00:30:34.949Z,7.89
2023-02-03T00:31:35.117Z,7.89
2023-02-03T00:32:34.419Z,7.89
2023-02-03T00:33:34.274Z,7.89
2023-02-03T00:34:35.577Z,7.89
2023-02-03T00:35:35.071Z,7.89
2023-02-03T00:36:34.877Z,7.89
2023-02-03T00:37:34.725Z,7.89
2023-02-03T00:38:34.918Z,7.89
2023-02-03T00:39:34.899Z,7.89
2023-02-03T00:40:34.687Z,7.89
2023-02-03T00:41:34.302Z,7.89
2023-02-03T00:42:34.818Z,7.89
2023-02-03T00:43:36.555Z,7.89
2023-02-03T00:44:35.153Z,7.95
2023-02-03T00:45:34.885Z,7.95
2023-02-03T00:46:34.222Z,7.95
2023-02-03T00:47:35.564Z,7.95
2023-02-03T00:48:35.346Z,7.95
2023-02-03T00:49:34.915Z,8
2023-02-03T00:50:34.749Z,8
2023-02-03T00:51:35.217Z,8
2023-02-03T00:52:35.155Z,8
2023-02-03T00:53:34.732Z,8.05
2023-02-03T00:54:34.697Z,8.05
2023-02-03T00:55:34.168Z,8.05
2023-02-03T00:56:34.171Z,8.05
2023-02-03T00:57:35.129Z,8.05
2023-02-03T00:58:35.292Z,8.05
2023-02-03T00:59:34.210Z,8.05
2023-02-03T01:00:34.291Z,8.05
2023-02-03T01:01:33.419Z,8.05
2023-02-03T01:02:34.893Z,8.05
2023-02-03T01:03:34.289Z,8.05
2023-02-03T01:04:34.806Z,8.05
2023-02-03T01:05:34.656Z,8.1
2023-02-03T01:06:35.092Z,8.1
2023-02-03T01:07:34.690Z,8.1
2023-02-03T01:08:34.804Z,8.1
2023-02-03T01:09:35.226Z,8.1
2023-02-03T01:10:34.387Z,8.1
2023-02-03T01:11:34.861Z,8.1
2023-02-03T01:12:34.707Z,8.1
2023-02-03T01:13:35.417Z,8.1
2023-02-03T01:14:34.843Z,8.1
2023-02-03T01:15:34.778Z,8.1
2023-02-03T01:16:35.492Z,8.1
2023-02-03T01:17:34.604Z,8.1
2023-02-03T01:18:34.328Z,8.1
2023-02-03T01:19:34.654Z,8.1
2023-02-03T01:20:34.839Z,8.1
2023-02-03T01:21:35.367Z,8.1
2023-02-03T01:22:34.626Z,8.15
2023-02-03T01:23:33.630Z,8.15
2023-02-03T01:24:35.177Z,8.15
2023-02-03T01:25:34.686Z,8.15
2023-02-03T01:26:34.700Z,8.15
2023-02-03T01:27:34.725Z,8.15
2023-02-03T01:28:34.899Z,8.1
2023-02-03T01:29:35.111Z,8.1
2023-02-03T01:30:34.570Z,8.1
2023-02-03T01:31:34.925Z,8.1
2023-02-03T01:32:34.974Z,8.1
2023-02-03T01:33:34.792Z,8.15
2023-02-03T01:34:34.376Z,8.15
2023-02-03T01:35:34.492Z,8.15
2023-02-03T01:36:34.939Z,8.15
2023-02-03T01:37:34.470Z,8.15
2023-02-03T01:38:34.797Z,8.15
2023-02-03T01:39:34.900Z,8.15
2023-02-03T01:40:35.154Z,8.15
2023-02-03T01:41:34.420Z,8.15
2023-02-03T01:42:34.587Z,8.15
2023-02-03T01:43:34.748Z,8.15
2023-02-03T01:44:34.312Z,8.15
2023-02-03T01:45:33.075Z,8.15
2023-02-03T01:46:34.535Z,8.15
2023-02-03T01:47:35.309Z,8.15
2023-02-03T01:48:33.075Z,8.15
2023-02-03T01:49:34.215Z,8.15
2023-02-03T01:50:34.554Z,8.15
2023-02-03T01:51:34.168Z,8.15
2023-02-03T01:52:35.128Z,8.15
2023-02-03T01:53:34.743Z,8.15
2023-02-03T01:54:34.454Z,8.15
2023-02-03T01:55:35.017Z,8.15
2023-02-03T01:56:35.175Z,8.15
2023-02-03T01:57:35.023Z,8.15
2023-02-03T01:58:35.049Z,8.15
2023-02-03T01:59:35.294Z,8.21
2023-02-03T02:00:35.409Z,8.21
2023-02-03T02:01:34.332Z,8.21
2023-02-03T02:02:35.497Z,8.21
2023-02-03T02:03:34.933Z,8.21
2023-02-03T02:04:34.156Z,8.21
2023-02-03T02:05:34.955Z,8.21
2023-02-03T02:06:35.249Z,8.21
2023-02-03T02:07:34.462Z,8.21
2023-02-03T02:08:35.151Z,8.21
2023-02-03T02:09:34.461Z,8.21
2023-02-03T02:10:33.409Z,8.21
2023-02-03T02:11:34.595Z,8.21
2023-02-03T02:12:34.786Z,8.21
2023-02-03T02:13:34.719Z,8.21
2023-02-03T02:14:34.697Z,8.21
2023-02-03T02:15:34.620Z,8.21
2023-02-03T02:16:34.497Z,8.21
2023-02-03T02:17:34.931Z,8.21
2023-02-03T02:18:34.843Z,8.21
2023-02-03T02:19:34.860Z,8.21
2023-02-03T02:20:34.333Z,8.21
2023-02-03T02:21:34.738Z,8.21
2023-02-03T02:22:35.656Z,8.21
2023-02-03T02:23:34.179Z,8.21
2023-02-03T02:24:36.196Z,8.21
2023-02-03T02:25:35.155Z,8.21
2023-02-03T02:26:34.665Z,8.21
2023-02-03T02:27:35.758Z,8.21
2023-02-03T02:28:35.074Z,8.21
2023-02-03T02:29:34.584Z,8.21
2023-02-03T02:30:35.269Z,8.21
2023-02-03T02:31:34.613Z,8.21
2023-02-03T02:32:34.889Z,8.21
2023-02-03T02:33:34.967Z,8.21
2023-02-03T02:34:34.807Z,8.21
2023-02-03T02:35:35.118Z,8.21
2023-02-03T02:36:34.148Z,8.21
2023-02-03T02:37:34.642Z,8.21
2023-02-03T02:38:34.905Z,8.21
2023-02-03T02:39:34.771Z,8.21
2023-02-03T02:40:35.126Z,8.21
2023-02-03T02:41:35.005Z,8.21
2023-02-03T02:42:34.445Z,8.21
2023-02-03T02:43:34.756Z,8.21
2023-02-03T02:44:34.254Z,8.21
2023-02-03T02:45:34.985Z,8.21
2023-02-03T02:46:34.812Z,8.21
2023-02-03T02:47:35.052Z,8.21
2023-02-03T02:48:35.015Z,8.21
2023-02-03T02:49:34.296Z,8.21
2023-02-03T02:50:34.249Z,8.21
2023-02-03T02:51:35.304Z,8.21
2023-02-03T02:52:35.377Z,8.21
2023-02-03T02:53:33.826Z,8.21
2023-02-03T02:54:35.048Z,8.21
2023-02-03T02:56:34.458Z,8.21
2023-02-03T02:57:35.377Z,8.21
2023-02-03T02:58:34.259Z,8.21
2023-02-03T02:59:35.079Z,8.21
2023-02-03T03:00:35.290Z,8.21
2023-02-03T03:01:35.616Z,8.21
2023-02-03T03:02:34.421Z,8.21
2023-02-03T03:03:34.287Z,8.21
2023-02-03T03:04:34.345Z,8.21
2023-02-03T03:05:34.707Z,8.21
2023-02-03T03:06:35.147Z,8.21
2023-02-03T03:07:35.032Z,8.21
2023-02-03T03:08:34.861Z,8.21
2023-02-03T03:09:34.853Z,8.21
2023-02-03T03:10:34.854Z,8.21
2023-02-03T03:11:34.909Z,8.21
2023-02-03T03:12:34.239Z,8.21
2023-02-03T03:13:34.176Z,8.21
2023-02-03T03:14:34.871Z,8.21
2023-02-03T03:15:35.025Z,8.21
2023-02-03T03:16:34.365Z,8.21
2023-02-03T03:17:33.507Z,8.15
2023-02-03T03:18:35.152Z,8.15
2023-02-03T03:19:34.731Z,8.21
2023-02-03T03:20:34.395Z,8.21
2023-02-03T03:21:34.802Z,8.21
2023-02-03T03:22:35.103Z,8.21
2023-02-03T03:23:34.306Z,8.21
2023-02-03T03:24:35.324Z,8.21
2023-02-03T03:25:34.824Z,8.21
2023-02-03T03:26:34.517Z,8.21
2023-02-03T03:27:34.530Z,8.21
2023-02-03T03:28:34.742Z,8.21
2023-02-03T03:29:34.467Z,8.21
2023-02-03T03:30:34.729Z,8.21
2023-02-03T03:31:34.280Z,8.21
2023-02-03T03:32:34.200Z,8.21
2023-02-03T03:33:34.637Z,8.15
2023-02-03T03:34:34.146Z,8.15
2023-02-03T03:35:34.275Z,8.15
2023-02-03T03:36:34.728Z,8.15
2023-02-03T03:37:34.503Z,8.15
2023-02-03T03:38:35.238Z,8.15
2023-02-03T03:39:34.651Z,8.15
2023-02-03T03:40:34.637Z,8.15
2023-02-03T03:41:35.689Z,8.15
2023-02-03T03:42:34.386Z,8.15
2023-02-03T03:43:34.715Z,8.15
2023-02-03T03:44:35.564Z,8.15
2023-02-03T03:45:36.447Z,8.15
2023-02-03T03:46:34.929Z,8.21
2023-02-03T03:47:35.790Z,8.15
2023-02-03T03:48:34.774Z,8.15
2023-02-03T03:49:34.915Z,8.15
2023-02-03T03:50:34.638Z,8.15
2023-02-03T03:51:34.188Z,8.15
2023-02-03T03:52:35.388Z,8.15
2023-02-03T03:53:34.800Z,8.15
2023-02-03T03:54:34.312Z,8.15
2023-02-03T03:55:35.035Z,8.15
2023-02-03T03:56:35.630Z,8.15
2023-02-03T03:57:35.496Z,8.15
2023-02-03T03:58:35.039Z,8.15
2023-02-03T03:59:34.625Z,8.15
2023-02-03T04:00:35.001Z,8.15
2023-02-03T04:01:34.506Z,8.15
2023-02-03T04:02:35.344Z,8.15
2023-02-03T04:04:34.710Z,8.15
2023-02-03T04:05:34.739Z,8.15
2023-02-03T04:06:35.123Z,8.15
2023-02-03T04:07:34.792Z,8.15
2023-02-03T04:08:34.854Z,8.21
2023-02-03T04:09:34.403Z,8.21
2023-02-03T04:10:34.822Z,8.21
2023-02-03T04:11:34.701Z,8.21
2023-02-03T04:12:34.151Z,8.15
2023-02-03T04:13:34.446Z,8.15
2023-02-03T04:14:34.629Z,8.21
2023-02-03T04:15:34.439Z,8.21
2023-02-03T04:16:35.781Z,8.21
2023-02-03T04:17:35.057Z,8.21
2023-02-03T04:18:34.771Z,8.21
2023-02-03T04:19:34.803Z,8.15
2023-02-03T04:20:34.468Z,8.15
2023-02-03T04:21:34.719Z,8.15
2023-02-03T04:22:34.887Z,8.21
2023-02-03T04:23:34.258Z,8.21
2023-02-03T04:24:34.444Z,8.15
2023-02-03T04:25:33.078Z,8.15
2023-02-03T04:26:34.506Z,8.15
2023-02-03T04:27:34.416Z,8.15
2023-02-03T04:28:35.038Z,8.15
2023-02-03T04:29:34.447Z,8.21
2023-02-03T04:30:34.977Z,8.15
2023-02-03T04:31:34.509Z,8.15
2023-02-03T04:32:34.311Z,8.15
2023-02-03T04:33:34.364Z,8.15
2023-02-03T04:34:34.146Z,8.15
2023-02-03T04:35:34.186Z,8.15
2023-02-03T04:36:34.987Z,8.15
2023-02-03T04:37:34.889Z,8.15
2023-02-03T04:38:34.155Z,8.15
2023-02-03T04:39:35.383Z,8.15
2023-02-03T04:40:35.271Z,8.15
2023-02-03T04:41:34.604Z,8.15
2023-02-03T04:42:34.825Z,8.15
2023-02-03T04:43:34.217Z,8.15
2023-02-03T04:44:34.635Z,8.15
2023-02-03T04:45:34.802Z,8.15
2023-02-03T04:46:35.981Z,8.15
2023-02-03T04:47:33.107Z,8.15
2023-02-03T04:48:34.246Z,8.15
2023-02-03T04:49:34.967Z,8.15
2023-02-03T04:50:34.174Z,8.15
2023-02-03T04:51:34.142Z,8.15
2023-02-03T04:52:35.114Z,8.15
2023-02-03T04:53:35.709Z,8.15
2023-02-03T04:54:34.793Z,8.15
2023-02-03T04:55:35.412Z,8.15
2023-02-03T04:56:34.182Z,8.15
2023-02-03T04:57:34.912Z,8.15
2023-02-03T04:58:34.133Z,8.15
2023-02-03T04:59:34.773Z,8.15
2023-02-03T05:00:35.504Z,8.15
2023-02-03T05:01:34.555Z,8.15
2023-02-03T05:02:34.153Z,8.15
2023-02-03T05:03:35.029Z,8.15
2023-02-03T05:04:34.473Z,8.15
2023-02-03T05:05:34.807Z,8.15
2023-02-03T05:06:34.501Z,8.15
2023-02-03T05:07:35.498Z,8.15
2023-02-03T05:08:34.915Z,8.15
2023-02-03T05:09:34.392Z,8.15
2023-02-03T05:10:35.338Z,8.15
2023-02-03T05:11:34.897Z,8.15
2023-02-03T05:12:34.859Z,8.15
2023-02-03T05:13:34.315Z,8.15
2023-02-03T05:14:34.770Z,8.15
2023-02-03T05:15:34.847Z,8.15
2023-02-03T05:16:34.911Z,8.15
2023-02-03T05:17:34.537Z,8.15
2023-02-03T05:18:34.851Z,8.15
2023-02-03T05:19:34.704Z,8.15
2023-02-03T05:20:35.374Z,8.15
2023-02-03T05:21:35.676Z,8.15
2023-02-03T05:22:34.974Z,8.15
2023-02-03T05:23:36.653Z,8.15
2023-02-03T05:24:34.674Z,8.15
2023-02-03T05:25:34.369Z,8.15
2023-02-03T05:26:35.096Z,8.15
2023-02-03T05:27:34.910Z,8.21
2023-02-03T05:28:35.828Z,8.21
2023-02-03T05:29:35.419Z,8.15
2023-02-03T05:30:35.449Z,8.21
2023-02-03T05:31:34.750Z,8.21
2023-02-03T05:32:33.682Z,8.21
2023-02-03T05:33:35.352Z,8.21
2023-02-03T05:34:35.204Z,8.15
2023-02-03T05:35:34.665Z,8.15
2023-02-03T05:36:35.040Z,8.15
2023-02-03T05:37:34.487Z,8.15
2023-02-03T05:38:34.253Z,8.15
2023-02-03T05:39:35.334Z,8.21
2023-02-03T05:40:34.372Z,8.15
2023-02-03T05:41:35.032Z,8.15
2023-02-03T05:42:34.174Z,8.21
2023-02-03T05:43:35.193Z,8.21
2023-02-03T05:44:34.988Z,8.21
2023-02-03T05:45:34.304Z,8.21
2023-02-03T05:46:34.289Z,8.21
2023-02-03T05:47:34.502Z,8.21
2023-02-03T05:48:35.099Z,8.21
2023-02-03T05:49:34.946Z,8.21
2023-02-03T05:50:35.755Z,8.21
2023-02-03T05:51:34.186Z,8.21
2023-02-03T05:52:34.146Z,8.21
2023-02-03T05:53:35.155Z,8.21
2023-02-03T05:54:35.316Z,8.21
2023-02-03T05:55:33.361Z,8.15
2023-02-03T05:56:36.317Z,8.21
2023-02-03T05:57:34.384Z,8.21
2023-02-03T05:58:34.894Z,8.21
2023-02-03T05:59:34.850Z,8.21
2023-02-03T06:00:35.631Z,8.21
2023-02-03T06:01:35.279Z,8.21
2023-02-03T06:02:35.025Z,8.21
2023-02-03T06:03:35.120Z,8.21
2023-02-03T06:04:34.532Z,8.21
2023-02-03T06:05:34.620Z,8.21
2023-02-03T06:06:34.630Z,8.21
2023-02-03T06:07:34.407Z,8.21
2023-02-03T06:08:35.330Z,8.21
2023-02-03T06:09:34.894Z,8.21
2023-02-03T06:10:34.132Z,8.21
2023-02-03T06:11:34.518Z,8.21
2023-02-03T06:12:34.310Z,8.21
2023-02-03T06:13:34.821Z,8.21
2023-02-03T06:14:34.118Z,8.21
2023-02-03T06:15:34.124Z,8.21
2023-02-03T06:16:34.571Z,8.21
2023-02-03T06:17:32.983Z,8.21
2023-02-03T06:18:34.812Z,8.21
2023-02-03T06:19:34.625Z,8.21
2023-02-03T06:20:34.320Z,8.21
2023-02-03T06:21:34.742Z,8.21
2023-02-03T06:22:34.853Z,8.21
2023-02-03T06:23:34.902Z,8.21
2023-02-03T06:24:35.885Z,8.21
2023-02-03T06:25:34.502Z,8.21
2023-02-03T06:26:34.796Z,8.21
2023-02-03T06:27:34.842Z,8.21
2023-02-03T06:28:34.466Z,8.21
2023-02-03T06:29:34.901Z,8.21
2023-02-03T06:30:34.871Z,8.21
2023-02-03T06:31:35.018Z,8.21
2023-02-03T06:32:34.707Z,8.21
2023-02-03T06:33:34.298Z,8.21
2023-02-03T06:34:34.679Z,8.21
2023-02-03T06:35:35.173Z,8.21
2023-02-03T06:36:35.661Z,8.21
2023-02-03T06:37:34.757Z,8.21
2023-02-03T06:38:34.847Z,8.21
2023-02-03T06:39:32.999Z,8.21
2023-02-03T06:40:34.965Z,8.21
2023-02-03T06:41:35.073Z,8.21
2023-02-03T06:42:35.071Z,8.21
2023-02-03T06:43:34.848Z,8.21
2023-02-03T06:44:34.690Z,8.21
2023-02-03T06:45:34.830Z,8.21
2023-02-03T06:46:34.376Z,8.21
2023-02-03T06:47:35.614Z,8.21
2023-02-03T06:48:34.420Z,8.21
2023-02-03T06:49:34.545Z,8.21
2023-02-03T06:50:35.142Z,8.21
2023-02-03T06:51:35.111Z,8.21
2023-02-03T06:52:34.642Z,8.21
2023-02-03T06:53:35.170Z,8.21
2023-02-03T06:54:34.945Z,8.21
2023-02-03T06:55:34.751Z,8.21
2023-02-03T06:56:35.809Z,8.26
2023-02-03T06:57:34.854Z,8.26
2023-02-03T06:58:34.398Z,8.21
2023-02-03T06:59:34.991Z,8.26
2023-02-03T07:00:34.521Z,8.26
2023-02-03T07:01:34.375Z,8.21
2023-02-03T07:02:35.000Z,8.26
2023-02-03T07:03:34.937Z,8.26
2023-02-03T07:04:35.656Z,8.21
2023-02-03T07:05:34.194Z,8.21
2023-02-03T07:06:34.656Z,8.21
2023-02-03T07:07:34.426Z,8.21
2023-02-03T07:08:34.491Z,8.21
2023-02-03T07:09:35.513Z,8.21
2023-02-03T07:10:34.660Z,8.21
2023-02-03T07:11:35.068Z,8.26
2023-02-03T07:12:35.379Z,8.26
2023-02-03T07:13:34.502Z,8.26
2023-02-03T07:14:34.577Z,8.21
2023-02-03T07:15:34.336Z,8.21
2023-02-03T07:16:34.856Z,8.21
2023-02-03T07:17:34.821Z,8.21
2023-02-03T07:18:49.713Z,8.26
2023-02-03T07:19:34.843Z,8.26
2023-02-03T07:20:35.479Z,8.26
2023-02-03T07:21:34.799Z,8.26
2023-02-03T07:22:34.897Z,8.26
2023-02-03T07:23:34.266Z,8.26
2023-02-03T07:24:34.646Z,8.26
2023-02-03T07:25:36.839Z,8.26
2023-02-03T07:26:34.780Z,8.26
2023-02-03T07:27:34.179Z,8.26
2023-02-03T07:28:34.311Z,8.26
2023-02-03T07:29:34.696Z,8.26
2023-02-03T07:30:34.803Z,8.26
2023-02-03T07:31:34.797Z,8.26
2023-02-03T07:32:34.733Z,8.26
2023-02-03T07:33:34.969Z,8.26
2023-02-03T07:34:34.467Z,8.26
2023-02-03T07:35:34.871Z,8.26
2023-02-03T07:36:34.144Z,8.26
2023-02-03T07:37:34.550Z,8.26
2023-02-03T07:38:34.840Z,8.31
2023-02-03T07:39:34.591Z,8.31
2023-02-03T07:40:35.289Z,8.31
2023-02-03T07:41:35.395Z,8.26
2023-02-03T07:42:40.139Z,8.26
2023-02-03T07:43:34.861Z,8.26
2023-02-03T07:44:35.096Z,8.31
2023-02-03T07:45:34.765Z,8.31
2023-02-03T07:46:33.025Z,8.31
2023-02-03T07:47:35.229Z,8.31
2023-02-03T07:48:35.021Z,8.31
2023-02-03T07:49:34.465Z,8.31
2023-02-03T07:50:34.639Z,8.31
2023-02-03T07:51:35.254Z,8.31
2023-02-03T07:52:35.156Z,8.31
2023-02-03T07:53:35.256Z,8.31
2023-02-03T07:54:35.384Z,8.31
2023-02-03T07:55:34.571Z,8.31
2023-02-03T07:56:35.399Z,8.31
2023-02-03T07:57:34.890Z,8.31
2023-02-03T07:58:35.057Z,8.31
2023-02-03T07:59:34.258Z,8.31
2023-02-03T08:00:35.516Z,8.31
2023-02-03T08:01:35.149Z,8.31
2023-02-03T08:02:34.197Z,8.31
2023-02-03T08:03:35.320Z,8.31
2023-02-03T08:04:34.747Z,8.31
2023-02-03T08:05:35.138Z,8.37
2023-02-03T08:06:34.568Z,8.37
2023-02-03T08:07:34.848Z,8.31
2023-02-03T08:08:33.208Z,8.31
2023-02-03T08:09:35.266Z,8.37
2023-02-03T08:10:34.812Z,8.31
2023-02-03T08:11:34.683Z,8.31
2023-02-03T08:12:35.787Z,8.31
2023-02-03T08:13:35.073Z,8.37
2023-02-03T08:14:34.384Z,8.37
2023-02-03T08:15:34.579Z,8.37
2023-02-03T08:16:34.813Z,8.37
2023-02-03T08:17:35.330Z,8.37
2023-02-03T08:18:34.925Z,8.37
2023-02-03T08:19:34.311Z,8.37
2023-02-03T08:20:34.826Z,8.37
2023-02-03T08:21:34.734Z,8.37
2023-02-03T08:22:35.454Z,8.37
2023-02-03T08:23:35.648Z,8.37
2023-02-03T08:24:35.005Z,8.37
2023-02-03T08:25:34.865Z,8.37
2023-02-03T08:26:34.562Z,8.37
2023-02-03T08:27:34.666Z,8.37
2023-02-03T08:28:34.153Z,8.37
2023-02-03T08:29:35.801Z,8.37
2023-02-03T08:30:34.381Z,8.37
2023-02-03T08:31:34.824Z,8.37
2023-02-03T08:32:35.923Z,8.42
2023-02-03T08:33:34.117Z,8.42
2023-02-03T08:34:35.217Z,8.42
2023-02-03T08:35:34.268Z,8.42
2023-02-03T08:36:34.099Z,8.42
2023-02-03T08:37:34.652Z,8.42
2023-02-03T08:38:34.327Z,8.42
2023-02-03T08:39:35.031Z,8.42
2023-02-03T08:40:34.623Z,8.42
2023-02-03T08:41:34.361Z,8.42
2023-02-03T08:42:34.461Z,8.42
2023-02-03T08:43:34.157Z,8.42
2023-02-03T08:44:34.364Z,8.42
2023-02-03T08:45:35.526Z,8.42
2023-02-03T08:46:34.735Z,8.42
2023-02-03T08:47:34.693Z,8.42
2023-02-03T08:48:34.536Z,8.48
2023-02-03T08:49:35.142Z,8.42
2023-02-03T08:50:34.380Z,8.48
2023-02-03T08:51:35.136Z,8.48
2023-02-03T08:52:34.741Z,8.48
2023-02-03T08:53:34.701Z,8.48
2023-02-03T08:54:35.691Z,8.48
2023-02-03T08:55:35.054Z,8.48
2023-02-03T08:56:34.183Z,8.48
2023-02-03T08:57:35.052Z,8.48
2023-02-03T08:58:34.986Z,8.48
2023-02-03T08:59:34.467Z,8.48
2023-02-03T09:00:35.500Z,8.48
2023-02-03T09:01:34.402Z,8.48
2023-02-03T09:02:35.298Z,8.48
2023-02-03T09:03:35.713Z,8.48
2023-02-03T09:04:34.685Z,8.48
2023-02-03T09:05:34.489Z,8.48
2023-02-03T09:06:34.817Z,8.48
2023-02-03T09:07:34.717Z,8.48
2023-02-03T09:08:34.240Z,8.48
2023-02-03T09:09:34.860Z,8.48
2023-02-03T09:10:34.121Z,8.48
2023-02-03T09:11:34.740Z,8.48
2023-02-03T09:12:34.404Z,8.48
2023-02-03T09:13:35.073Z,8.48
2023-02-03T09:14:34.261Z,8.48
2023-02-03T09:15:34.891Z,8.48
2023-02-03T09:16:34.181Z,8.48
2023-02-03T09:17:34.787Z,8.42
2023-02-03T09:18:34.177Z,8.42
2023-02-03T09:19:36.197Z,8.42
2023-02-03T09:20:35.105Z,8.37
2023-02-03T09:21:36.945Z,8.31
2023-02-03T09:22:34.515Z,8.31
2023-02-03T09:23:34.211Z,8.26
2023-02-03T09:24:34.223Z,8.31
2023-02-03T09:25:34.847Z,8.31
2023-02-03T09:26:34.528Z,8.31
2023-02-03T09:27:34.342Z,8.31
2023-02-03T09:28:34.127Z,8.26
2023-02-03T09:29:34.957Z,8.26
2023-02-03T09:30:35.208Z,8.21
2023-02-03T09:31:36.017Z,8.21
2023-02-03T09:32:34.161Z,8.21
2023-02-03T09:33:34.826Z,8.26
2023-02-03T09:34:34.898Z,8.26
2023-02-03T09:35:34.097Z,8.26
2023-02-03T09:36:34.127Z,8.26
2023-02-03T09:37:34.208Z,8.31
2023-02-03T09:38:35.428Z,8.31
2023-02-03T09:40:34.625Z,8.37
2023-02-03T09:41:35.277Z,8.37
2023-02-03T09:42:34.180Z,8.37
2023-02-03T09:43:34.860Z,8.37
2023-02-03T09:44:34.597Z,8.37
2023-02-03T09:45:35.456Z,8.37
2023-02-03T09:46:34.383Z,8.37
2023-02-03T09:47:34.099Z,8.37
2023-02-03T09:48:35.018Z,8.37
2023-02-03T09:49:34.633Z,8.37
2023-02-03T09:50:34.885Z,8.37
2023-02-03T09:51:34.975Z,8.37
2023-02-03T09:52:35.116Z,8.37
2023-02-03T09:53:35.115Z,8.37
2023-02-03T09:54:34.743Z,8.37
2023-02-03T09:55:34.732Z,8.37
2023-02-03T09:56:34.604Z,8.37
2023-02-03T09:57:34.731Z,8.37
2023-02-03T09:58:34.875Z,8.37
2023-02-03T09:59:34.480Z,8.37
2023-02-03T10:00:34.854Z,8.37
2023-02-03T10:01:35.025Z,8.37
2023-02-03T10:02:34.606Z,8.37
2023-02-03T10:03:33.344Z,8.37
2023-02-03T10:04:34.115Z,8.37
2023-02-03T10:05:34.507Z,8.37
2023-02-03T10:06:34.301Z,8.37
2023-02-03T10:07:35.233Z,8.37
2023-02-03T10:08:34.939Z,8.37
2023-02-03T10:09:34.107Z,8.37
2023-02-03T10:10:35.249Z,8.37
2023-02-03T10:11:34.211Z,8.37
2023-02-03T10:12:34.440Z,8.37
2023-02-03T10:13:36.605Z,8.37
2023-02-03T10:14:35.000Z,8.42
2023-02-03T10:15:35.540Z,8.37
2023-02-03T10:16:35.052Z,8.42
2023-02-03T10:17:34.794Z,8.37
2023-02-03T10:18:34.102Z,8.37
2023-02-03T10:19:34.181Z,8.37
2023-02-03T10:20:34.804Z,8.37
2023-02-03T10:21:34.584Z,8.37
2023-02-03T10:22:34.975Z,8.37
2023-02-03T10:23:34.927Z,8.37
2023-02-03T10:24:34.232Z,8.37
2023-02-03T10:25:34.238Z,8.37
2023-02-03T10:26:34.996Z,8.37
2023-02-03T10:27:34.223Z,8.37
2023-02-03T10:28:35.048Z,8.37
2023-02-03T10:29:34.545Z,8.37
2023-02-03T10:30:35.069Z,8.37
2023-02-03T10:31:34.828Z,8.37
2023-02-03T10:32:35.092Z,8.37
2023-02-03T10:33:34.851Z,8.37
2023-02-03T10:34:34.744Z,8.37
2023-02-03T10:35:35.519Z,8.37
2023-02-03T10:36:34.585Z,8.37
2023-02-03T10:37:34.170Z,8.37
2023-02-03T10:38:35.035Z,8.37
2023-02-03T10:39:34.386Z,8.37
2023-02-03T10:40:34.502Z,8.37
2023-02-03T10:41:34.879Z,8.31
2023-02-03T10:42:34.215Z,8.37
2023-02-03T10:43:34.897Z,8.31
2023-02-03T10:44:34.317Z,8.31
2023-02-03T10:45:34.737Z,8.26
2023-02-03T10:46:34.657Z,8.26
2023-02-03T10:47:34.096Z,8.26
2023-02-03T10:48:35.103Z,8.26
2023-02-03T10:49:34.605Z,8.21
2023-02-03T10:50:34.475Z,8.21
2023-02-03T10:51:34.100Z,8.21
2023-02-03T10:52:34.702Z,8.21
2023-02-03T10:53:34.458Z,8.21
2023-02-03T10:54:34.840Z,8.21
2023-02-03T10:55:36.515Z,8.21
2023-02-03T10:56:34.431Z,8.21
2023-02-03T10:57:34.108Z,8.21
2023-02-03T10:58:34.948Z,8.21
2023-02-03T10:59:35.048Z,8.21
2023-02-03T11:00:34.626Z,8.21
2023-02-03T11:01:34.983Z,8.26
2023-02-03T11:02:34.693Z,8.26
2023-02-03T11:03:34.549Z,8.26
2023-02-03T11:04:35.155Z,8.26
2023-02-03T11:05:35.195Z,8.31
2023-02-03T11:06:34.163Z,8.31
2023-02-03T11:07:34.473Z,8.31
2023-02-03T11:08:34.919Z,8.31
2023-02-03T11:09:34.931Z,8.31
2023-02-03T11:10:33.788Z,8.31
2023-02-03T11:11:34.208Z,8.31
2023-02-03T11:12:35.429Z,8.31
2023-02-03T11:13:34.576Z,8.31
2023-02-03T11:14:35.301Z,8.31
2023-02-03T11:15:35.271Z,8.31
2023-02-03T11:16:34.679Z,8.31
2023-02-03T11:17:34.739Z,8.31
2023-02-03T11:18:35.377Z,8.31
2023-02-03T11:19:35.506Z,8.31
2023-02-03T11:20:34.288Z,8.37
2023-02-03T11:21:34.779Z,8.37
2023-02-03T11:22:34.286Z,8.37
2023-02-03T11:23:34.490Z,8.37
2023-02-03T11:24:34.811Z,8.37
2023-02-03T11:25:34.585Z,8.37
2023-02-03T11:26:34.179Z,8.37
2023-02-03T11:27:34.720Z,8.37
2023-02-03T11:28:34.400Z,8.37
2023-02-03T11:29:34.389Z,8.37
2023-02-03T11:30:34.588Z,8.37
2023-02-03T11:31:34.361Z,8.37
2023-02-03T11:32:34.621Z,8.37
2023-02-03T11:33:35.679Z,8.37
2023-02-03T11:34:35.049Z,8.37
2023-02-03T11:35:34.754Z,8.37
2023-02-03T11:36:34.711Z,8.31
2023-02-03T11:37:34.976Z,8.31
2023-02-03T11:38:34.504Z,8.37
2023-02-03T11:39:35.178Z,8.37
2023-02-03T11:40:34.901Z,8.37
2023-02-03T11:41:35.491Z,8.37
2023-02-03T11:42:34.920Z,8.37
2023-02-03T11:43:34.497Z,8.37
2023-02-03T11:44:34.084Z,8.37
2023-02-03T11:45:35.638Z,8.37
2023-02-03T11:46:34.595Z,8.37
2023-02-03T11:47:34.720Z,8.37
2023-02-03T11:48:34.930Z,8.37
2023-02-03T11:49:34.224Z,8.37
2023-02-03T11:50:36.999Z,8.31
2023-02-03T11:51:35.279Z,8.31
2023-02-03T11:52:34.086Z,8.31
2023-02-03T11:53:36.338Z,8.31
2023-02-03T11:54:34.159Z,8.37
2023-02-03T11:55:35.374Z,8.37
2023-02-03T11:56:34.671Z,8.37
2023-02-03T11:57:34.093Z,8.37
2023-02-03T11:58:35.504Z,8.31
2023-02-03T11:59:34.628Z,8.31
2023-02-03T12:00:35.509Z,8.31
2023-02-03T12:01:35.228Z,8.31
2023-02-03T12:02:34.224Z,8.31
2023-02-03T12:03:35.285Z,8.31
2023-02-03T12:04:34.740Z,8.31
2023-02-03T12:05:34.787Z,8.37
2023-02-03T12:06:35.626Z,8.37
2023-02-03T12:07:34.465Z,8.37
2023-02-03T12:08:34.455Z,8.37
2023-02-03T12:09:35.174Z,8.37
2023-02-03T12:10:34.085Z,8.37
2023-02-03T12:11:35.862Z,8.37
2023-02-03T12:12:34.826Z,8.37
2023-02-03T12:13:34.818Z,8.37
2023-02-03T12:14:34.201Z,8.37
2023-02-03T12:15:34.598Z,8.37
2023-02-03T12:16:35.585Z,8.37
2023-02-03T12:17:33.252Z,8.37
2023-02-03T12:18:34.998Z,8.37
2023-02-03T12:19:34.529Z,8.37
2023-02-03T12:20:34.143Z,8.37
2023-02-03T12:21:35.437Z,8.37
2023-02-03T12:22:34.523Z,8.37
2023-02-03T12:23:35.170Z,8.37
2023-02-03T12:24:34.721Z,8.37
2023-02-03T12:25:34.821Z,8.37
2023-02-03T12:26:34.112Z,8.37
2023-02-03T12:27:34.092Z,8.37
2023-02-03T12:28:34.991Z,8.37
2023-02-03T12:29:34.875Z,8.37
2023-02-03T12:30:35.052Z,8.37
2023-02-03T12:31:34.384Z,8.37
2023-02-03T12:32:35.141Z,8.37
2023-02-03T12:33:35.170Z,8.37
2023-02-03T12:34:34.556Z,8.37
2023-02-03T12:35:34.588Z,8.37
2023-02-03T12:36:34.908Z,8.37
2023-02-03T12:37:34.609Z,8.37
2023-02-03T12:38:35.424Z,8.37
2023-02-03T12:39:33.200Z,8.37
2023-02-03T12:40:34.074Z,8.37
2023-02-03T12:41:36.269Z,8.37
2023-02-03T12:42:34.551Z,8.37
2023-02-03T12:43:34.079Z,8.37
2023-02-03T12:44:34.535Z,8.37
2023-02-03T12:45:34.826Z,8.37
2023-02-03T12:46:34.793Z,8.37
2023-02-03T12:47:34.084Z,8.37
2023-02-03T12:48:34.191Z,8.37
2023-02-03T12:49:34.577Z,8.37
2023-02-03T12:50:34.778Z,8.37
2023-02-03T12:51:35.193Z,8.37
2023-02-03T12:52:35.274Z,8.37
2023-02-03T12:53:34.149Z,8.37
2023-02-03T12:54:34.068Z,8.37
2023-02-03T12:55:34.228Z,8.37
2023-02-03T12:56:34.087Z,8.37
2023-02-03T12:57:34.180Z,8.37
2023-02-03T12:58:34.984Z,8.37
2023-02-03T12:59:34.166Z,8.42
2023-02-03T13:00:34.742Z,8.42
2023-02-03T13:01:34.813Z,8.42
2023-02-03T13:02:35.247Z,8.42
2023-02-03T13:03:35.012Z,8.42
2023-02-03T13:04:34.785Z,8.42
2023-02-03T13:05:35.134Z,8.42
2023-02-03T13:06:34.416Z,8.42
2023-02-03T13:07:34.654Z,8.42
2023-02-03T13:08:34.372Z,8.42
2023-02-03T13:09:34.093Z,8.42
2023-02-03T13:10:34.696Z,8.42
2023-02-03T13:11:34.084Z,8.42
2023-02-03T13:12:34.455Z,8.42
2023-02-03T13:13:34.452Z,8.48
2023-02-03T13:14:34.565Z,8.48
2023-02-03T13:15:37.331Z,8.42
2023-02-03T13:16:34.475Z,8.48
2023-02-03T13:17:34.510Z,8.48
2023-02-03T13:18:35.111Z,8.42
2023-02-03T13:19:36.282Z,8.48
2023-02-03T13:20:35.669Z,8.48
2023-02-03T13:21:34.403Z,8.48
2023-02-03T13:22:34.679Z,8.42
2023-02-03T13:23:33.009Z,8.42